Time;durP1;ratioP1;P1;durP2;ratioP2;P2;SDS_P1;SDS_P2;PMS_P1;PMS_P2;Temp;Humidity;BMP_temperature;BMP_pressure;BME280_temperature;BME280_humidity;BME280_pressure;Samples;Min_cycle;Max_cycle;Signal;HPM_P1;HPM_P2
2022/11/02 00:00:20;;;;;;;;;1.00;1.00;;;;;;;;5032890;28;45724;-67
2022/11/02 00:02:45;;;;;;;;;1.33;1.00;;;;;;;;5046100;28;46108;-66
2022/11/02 00:05:11;;;;;;;;;2.67;1.33;;;;;;;;5043424;28;45453;-66
2022/11/02 00:07:36;;;;;;;;;1.00;0.00;;;;;;;;5035452;28;45659;-65
2022/11/02 00:10:01;;;;;;;;;0.00;0.00;;;;;;;;5033434;28;45748;-67
2022/11/02 00:12:27;;;;;;;;;3.00;1.00;;;;;;;;5034906;28;46294;-65
2022/11/02 00:14:52;;;;;;;;;1.00;1.00;;;;;;;;5050725;28;45715;-66
2022/11/02 00:17:17;;;;;;;;;3.67;0.33;;;;;;;;5049183;28;45647;-65
2022/11/02 00:19:43;;;;;;;;;1.33;1.00;;;;;;;;5050702;28;45373;-66
2022/11/02 00:22:08;;;;;;;;;0.00;0.00;;;;;;;;5050036;28;46159;-66
2022/11/02 00:24:33;;;;;;;;;2.00;0.67;;;;;;;;5047127;28;45842;-66
2022/11/02 00:26:59;;;;;;;;;2.00;0.67;;;;;;;;5049176;28;45470;-66
2022/11/02 00:29:25;;;;;;;;;5.33;2.00;;;;;;;;5043386;28;45700;-66
2022/11/02 00:31:50;;;;;;;;;3.00;0.67;;;;;;;;5030518;28;45591;-66
2022/11/02 00:34:15;;;;;;;;;2.00;0.67;;;;;;;;5052597;28;45448;-67
2022/11/02 00:36:41;;;;;;;;;0.00;0.00;;;;;;;;5055041;28;45313;-67
2022/11/02 00:39:06;;;;;;;;;4.00;2.00;;;;;;;;5044315;28;45905;-66
2022/11/02 00:41:31;;;;;;;;;6.33;2.67;;;;;;;;5045587;28;45397;-68
2022/11/02 00:43:57;;;;;;;;;4.00;0.67;;;;;;;;5044533;28;45417;-66
2022/11/02 00:46:22;;;;;;;;;3.00;1.67;;;;;;;;5055195;28;45488;-66
2022/11/02 00:48:47;;;;;;;;;2.00;0.00;;;;;;;;5034803;28;45507;-66
2022/11/02 00:51:12;;;;;;;;;1.67;1.00;;;;;;;;5048259;28;46395;-68
2022/11/02 00:53:38;;;;;;;;;2.67;0.67;;;;;;;;5054556;28;45953;-68
2022/11/02 00:56:03;;;;;;;;;0.33;0.33;;;;;;;;5062446;28;45573;-65
2022/11/02 00:58:28;;;;;;;;;1.67;1.67;;;;;;;;5054287;28;45529;-65
2022/11/02 01:00:55;;;;;;;;;3.33;0.67;;;;;;;;5054408;28;45458;-67
2022/11/02 01:03:20;;;;;;;;;2.33;1.00;;;;;;;;5054624;28;45823;-65
2022/11/02 01:05:45;;;;;;;;;2.67;0.67;;;;;;;;5049392;28;45747;-66
2022/11/02 01:08:11;;;;;;;;;1.67;0.00;;;;;;;;5036428;28;45914;-67
2022/11/02 01:10:36;;;;;;;;;1.00;1.00;;;;;;;;5045253;28;45702;-66
2022/11/02 01:13:01;;;;;;;;;6.33;1.67;;;;;;;;5048705;28;45357;-67
2022/11/02 01:15:26;;;;;;;;;2.00;0.67;;;;;;;;5039316;28;45464;-68
2022/11/02 01:17:52;;;;;;;;;2.67;1.67;;;;;;;;5055949;28;45394;-65
2022/11/02 01:20:17;;;;;;;;;2.00;2.00;;;;;;;;5052976;28;45389;-65
2022/11/02 01:22:42;;;;;;;;;5.33;1.67;;;;;;;;5038600;28;45675;-67
2022/11/02 01:25:08;;;;;;;;;3.67;2.00;;;;;;;;5040607;28;45733;-66
2022/11/02 01:27:33;;;;;;;;;1.00;1.00;;;;;;;;5053633;28;45560;-66
2022/11/02 01:29:58;;;;;;;;;4.00;1.67;;;;;;;;5053938;28;45712;-66
2022/11/02 01:32:23;;;;;;;;;1.00;1.00;;;;;;;;5053972;28;45749;-66
2022/11/02 01:34:49;;;;;;;;;7.33;1.67;;;;;;;;5067246;28;45437;-66
2022/11/02 01:37:14;;;;;;;;;6.33;2.67;;;;;;;;5054064;28;45339;-64
2022/11/02 01:39:39;;;;;;;;;5.67;1.00;;;;;;;;5065234;28;46628;-66
2022/11/02 01:42:15;;;;;;;;;3.67;1.00;;;;;;;;5048041;28;45822;-65
2022/11/02 01:44:42;;;;;;;;;6.00;2.67;;;;;;;;5049183;28;45591;-66
2022/11/02 01:47:13;;;;;;;;;4.33;0.67;;;;;;;;5056312;28;45270;-66
2022/11/02 01:49:41;;;;;;;;;1.67;1.67;;;;;;;;5053509;28;46545;-65
2022/11/02 01:52:12;;;;;;;;;5.67;3.00;;;;;;;;5050742;28;45529;-67
2022/11/02 01:54:42;;;;;;;;;1.67;0.67;;;;;;;;5052672;28;45480;-65
2022/11/02 01:57:09;;;;;;;;;1.00;1.00;;;;;;;;5048055;28;45277;-66
2022/11/02 01:59:46;;;;;;;;;3.00;1.00;;;;;;;;5048560;28;45423;-65
2022/11/02 02:02:16;;;;;;;;;5.33;1.67;;;;;;;;5048325;28;45816;-65
2022/11/02 02:04:42;;;;;;;;;2.67;1.33;;;;;;;;5047380;28;45678;-66
2022/11/02 02:07:09;;;;;;;;;2.00;0.67;;;;;;;;5048970;28;45362;-66
2022/11/02 02:09:34;;;;;;;;;0.67;0.67;;;;;;;;5046720;28;45830;-67
2022/11/02 02:12:00;;;;;;;;;2.00;1.67;;;;;;;;5065190;28;45465;-66
2022/11/02 02:14:25;;;;;;;;;2.00;0.67;;;;;;;;5044017;28;45815;-64
2022/11/02 02:16:57;;;;;;;;;1.67;1.67;;;;;;;;5044865;28;45402;-66
2022/11/02 02:19:25;;;;;;;;;4.33;1.33;;;;;;;;5037739;28;45973;-66
2022/11/02 02:21:58;;;;;;;;;3.67;1.67;;;;;;;;5042017;28;45511;-65
2022/11/02 02:24:42;;;;;;;;;0.67;0.67;;;;;;;;5035018;28;45686;-64
2022/11/02 02:27:07;;;;;;;;;0.67;0.00;;;;;;;;5046406;28;45900;-66
2022/11/02 02:29:39;;;;;;;;;3.00;3.00;;;;;;;;5057611;28;45330;-65
2022/11/02 02:32:15;;;;;;;;;1.00;1.00;;;;;;;;5058020;28;45836;-65
2022/11/02 02:34:43;;;;;;;;;1.33;0.33;;;;;;;;5049065;28;45679;-66
2022/11/02 02:37:23;;;;;;;;;2.33;2.00;;;;;;;;5056072;28;45634;-65
2022/11/02 02:39:54;;;;;;;;;7.33;2.33;;;;;;;;5024925;28;47149;-66
2022/11/02 02:42:39;;;;;;;;;5.00;2.00;;;;;;;;5051694;28;45707;-66
2022/11/02 02:45:15;;;;;;;;;2.67;1.67;;;;;;;;5047847;28;45851;-65
2022/11/02 02:47:48;;;;;;;;;3.67;1.67;;;;;;;;5045450;28;45745;-64
2022/11/02 02:50:19;;;;;;;;;0.67;0.67;;;;;;;;5052869;28;45534;-66
2022/11/02 02:52:46;;;;;;;;;3.33;2.33;;;;;;;;5047061;28;45473;-66
2022/11/02 02:55:21;;;;;;;;;3.33;2.00;;;;;;;;5053043;28;45362;-65
2022/11/02 02:57:48;;;;;;;;;1.67;1.33;;;;;;;;5048863;28;45623;-66
2022/11/02 03:00:15;;;;;;;;;1.67;1.67;;;;;;;;5053612;28;46014;-66
2022/11/02 03:02:41;;;;;;;;;7.33;1.33;;;;;;;;5039924;28;45825;-65
2022/11/02 03:05:23;;;;;;;;;7.33;2.67;;;;;;;;5054253;28;45742;-64
2022/11/02 03:07:49;;;;;;;;;4.00;2.00;;;;;;;;5033836;28;45384;-65
2022/11/02 03:10:32;;;;;;;;;4.33;1.00;;;;;;;;5057609;28;45476;-64
2022/11/02 03:13:24;;;;;;;;;2.67;1.33;;;;;;;;5037023;28;45422;-66
2022/11/02 03:15:53;;;;;;;;;2.00;2.00;;;;;;;;5017076;28;45643;-65
2022/11/02 03:18:18;;;;;;;;;3.00;1.67;;;;;;;;5031102;28;45382;-65
2022/11/02 03:20:57;;;;;;;;;5.33;2.33;;;;;;;;5053304;28;45460;-66
2022/11/02 03:23:27;;;;;;;;;7.00;2.00;;;;;;;;5050321;28;45421;-64
2022/11/02 03:25:57;;;;;;;;;4.00;1.33;;;;;;;;5049447;28;45758;-65
2022/11/02 03:28:42;;;;;;;;;4.00;1.00;;;;;;;;5052093;28;45755;-66
2022/11/02 03:31:11;;;;;;;;;4.67;2.67;;;;;;;;5034140;28;47187;-64
2022/11/02 03:33:41;;;;;;;;;5.33;4.33;;;;;;;;5031475;28;45415;-65
2022/11/02 03:36:09;;;;;;;;;1.00;1.00;;;;;;;;5045707;28;45382;-66
2022/11/02 03:38:46;;;;;;;;;1.33;1.00;;;;;;;;5069885;28;45797;-64
2022/11/02 03:41:12;;;;;;;;;1.67;1.33;;;;;;;;5041129;28;45622;-66
2022/11/02 03:43:39;;;;;;;;;7.33;1.00;;;;;;;;5027618;28;45490;-68
2022/11/02 03:46:06;;;;;;;;;1.67;1.67;;;;;;;;5052603;28;45772;-64
2022/11/02 03:48:35;;;;;;;;;5.00;2.33;;;;;;;;5048773;28;45812;-64
2022/11/02 03:51:04;;;;;;;;;3.67;1.00;;;;;;;;5054503;28;45588;-63
2022/11/02 03:53:49;;;;;;;;;7.67;2.00;;;;;;;;5049483;28;45383;-66
2022/11/02 03:56:19;;;;;;;;;8.00;2.00;;;;;;;;5033836;28;45400;-66
2022/11/02 03:58:44;;;;;;;;;6.00;3.00;;;;;;;;5037360;28;46025;-66
2022/11/02 04:01:10;;;;;;;;;4.00;1.67;;;;;;;;5055069;28;46260;-65
2022/11/02 04:03:38;;;;;;;;;5.33;2.00;;;;;;;;5037508;28;45967;-66
2022/11/02 04:06:03;;;;;;;;;3.00;1.67;;;;;;;;5044085;28;45400;-65
2022/11/02 04:08:35;;;;;;;;;3.67;2.00;;;;;;;;5040750;28;45232;-66
2022/11/02 04:16:28;;;;;;;;;2.00;2.00;;;;;;;;5042044;28;45560;-65
2022/11/02 04:21:37;;;;;;;;;4.33;2.00;;;;;;;;5040123;28;46249;-65
2022/11/02 04:26:46;;;;;;;;;0.67;0.00;;;;;;;;5045333;28;45640;-65
2022/11/02 04:29:11;;;;;;;;;3.33;1.00;;;;;;;;5042356;28;45617;-66
2022/11/02 04:31:37;;;;;;;;;3.33;1.00;;;;;;;;5044538;28;47243;-65
2022/11/02 04:34:02;;;;;;;;;4.00;2.00;;;;;;;;5045824;28;45810;-66
2022/11/02 04:36:28;;;;;;;;;3.00;1.00;;;;;;;;5043479;28;45809;-67
2022/11/02 04:38:53;;;;;;;;;4.67;2.67;;;;;;;;5048248;28;45438;-66
2022/11/02 04:44:04;;;;;;;;;3.67;2.00;;;;;;;;5036622;28;45349;-67
2022/11/02 04:46:30;;;;;;;;;3.67;2.67;;;;;;;;5058750;28;45322;-68
2022/11/02 04:48:56;;;;;;;;;4.33;1.33;;;;;;;;5039045;28;45419;-67
2022/11/02 04:51:21;;;;;;;;;7.67;3.00;;;;;;;;5056305;28;45665;-66
2022/11/02 04:53:47;;;;;;;;;4.67;2.67;;;;;;;;5033525;28;45744;-67
2022/11/02 04:56:12;;;;;;;;;2.33;1.00;;;;;;;;5039559;28;45901;-69
2022/11/02 04:58:37;;;;;;;;;4.67;1.33;;;;;;;;5041446;28;45528;-65
2022/11/02 05:01:05;;;;;;;;;7.33;2.67;;;;;;;;5036007;28;46921;-66
2022/11/02 05:03:30;;;;;;;;;1.67;1.00;;;;;;;;5029816;28;45833;-65
2022/11/02 05:05:56;;;;;;;;;3.67;2.00;;;;;;;;5036468;28;45896;-66
2022/11/02 05:08:21;;;;;;;;;3.67;2.00;;;;;;;;5039527;28;45534;-66
2022/11/02 05:10:46;;;;;;;;;5.00;1.67;;;;;;;;5035269;28;46207;-67
2022/11/02 05:13:11;;;;;;;;;4.33;2.00;;;;;;;;5036018;28;45402;-65
2022/11/02 05:15:39;;;;;;;;;2.67;2.33;;;;;;;;5035722;28;45910;-66
2022/11/02 05:18:05;;;;;;;;;7.33;3.00;;;;;;;;5042766;28;45520;-67
2022/11/02 05:20:30;;;;;;;;;5.00;2.33;;;;;;;;5036710;28;46528;-66
2022/11/02 05:22:55;;;;;;;;;1.00;1.00;;;;;;;;5036279;28;45629;-67
2022/11/02 05:25:20;;;;;;;;;3.00;1.00;;;;;;;;5035442;28;45636;-64
2022/11/02 05:27:46;;;;;;;;;3.00;3.00;;;;;;;;5036132;28;45434;-66
2022/11/02 05:30:11;;;;;;;;;5.00;2.00;;;;;;;;5035198;28;46174;-65
2022/11/02 05:32:36;;;;;;;;;5.00;3.33;;;;;;;;5038076;28;45250;-65
2022/11/02 05:35:02;;;;;;;;;4.00;2.00;;;;;;;;5040950;28;45495;-65
2022/11/02 05:37:27;;;;;;;;;28.33;22.33;;;;;;;;5048338;28;45634;-65
2022/11/02 05:39:54;;;;;;;;;16.00;13.00;;;;;;;;5036176;28;46433;-65
2022/11/02 05:42:19;;;;;;;;;17.00;11.67;;;;;;;;5041443;28;45373;-67
2022/11/02 05:44:44;;;;;;;;;7.67;3.33;;;;;;;;5041720;28;46190;-66
2022/11/02 05:47:10;;;;;;;;;7.67;5.00;;;;;;;;5045614;28;45792;-66
2022/11/02 05:49:35;;;;;;;;;5.00;2.00;;;;;;;;5048869;28;46493;-66
2022/11/02 05:52:00;;;;;;;;;4.67;2.67;;;;;;;;5045532;28;45381;-66
2022/11/02 05:54:25;;;;;;;;;7.00;3.33;;;;;;;;5049221;28;45432;-65
2022/11/02 05:56:51;;;;;;;;;9.67;3.67;;;;;;;;5046770;28;45653;-66
2022/11/02 05:59:16;;;;;;;;;2.00;2.00;;;;;;;;5046880;28;45714;-65
2022/11/02 06:01:41;;;;;;;;;2.33;1.00;;;;;;;;5027925;28;45754;-65
2022/11/02 06:04:06;;;;;;;;;3.33;3.00;;;;;;;;5034296;28;45734;-67
2022/11/02 06:06:32;;;;;;;;;8.67;4.33;;;;;;;;5046274;28;45588;-66
2022/11/02 06:08:57;;;;;;;;;4.33;3.33;;;;;;;;5045708;28;45882;-67
2022/11/02 06:11:22;;;;;;;;;7.00;3.00;;;;;;;;5051764;28;45500;-66
2022/11/02 06:13:49;;;;;;;;;8.00;5.00;;;;;;;;5053548;28;45421;-68
2022/11/02 06:16:15;;;;;;;;;7.00;4.67;;;;;;;;5047117;28;45676;-67
2022/11/02 06:18:40;;;;;;;;;3.67;2.67;;;;;;;;5048764;28;46298;-67
2022/11/02 06:21:06;;;;;;;;;6.33;2.67;;;;;;;;5047164;28;45893;-67
2022/11/02 06:23:31;;;;;;;;;4.33;3.00;;;;;;;;5045455;28;45741;-67
2022/11/02 06:25:57;;;;;;;;;6.00;3.33;;;;;;;;5049215;28;45701;-64
2022/11/02 06:28:23;;;;;;;;;3.00;3.00;;;;;;;;5045342;28;46493;-68
2022/11/02 06:30:49;;;;;;;;;4.67;2.00;;;;;;;;5048300;28;45546;-66
2022/11/02 06:33:14;;;;;;;;;3.67;3.00;;;;;;;;5031318;28;45501;-67
2022/11/02 06:35:43;;;;;;;;;4.00;2.33;;;;;;;;5029696;28;47345;-71
2022/11/02 06:38:08;;;;;;;;;9.33;3.33;;;;;;;;5047250;28;45445;-67
2022/11/02 06:40:34;;;;;;;;;4.00;3.00;;;;;;;;5041211;28;45762;-67
2022/11/02 06:42:59;;;;;;;;;6.67;4.33;;;;;;;;5045301;28;45730;-67
2022/11/02 06:45:24;;;;;;;;;3.33;1.67;;;;;;;;5023734;28;47185;-67
2022/11/02 06:47:49;;;;;;;;;5.00;3.67;;;;;;;;5044380;28;46342;-65
2022/11/02 06:50:15;;;;;;;;;5.33;3.00;;;;;;;;5042865;28;45520;-65
2022/11/02 06:52:44;;;;;;;;;8.67;3.33;;;;;;;;5044222;28;45607;-65
2022/11/02 06:55:09;;;;;;;;;5.67;5.00;;;;;;;;5039860;28;45708;-67
2022/11/02 06:57:35;;;;;;;;;5.00;3.00;;;;;;;;5037523;28;45772;-67
2022/11/02 07:00:04;;;;;;;;;5.33;3.00;;;;;;;;5045862;28;45727;-66
2022/11/02 07:02:29;;;;;;;;;5.67;3.00;;;;;;;;5045079;28;46270;-65
2022/11/02 07:04:54;;;;;;;;;7.00;5.00;;;;;;;;5048629;28;45812;-67
2022/11/02 07:07:20;;;;;;;;;4.00;3.00;;;;;;;;5047176;28;45852;-64
2022/11/02 07:09:45;;;;;;;;;5.67;5.00;;;;;;;;5049134;28;45910;-65
2022/11/02 07:12:10;;;;;;;;;11.00;4.00;;;;;;;;5043377;28;45744;-66
2022/11/02 07:14:35;;;;;;;;;7.33;4.00;;;;;;;;5051107;28;45602;-66
2022/11/02 07:17:01;;;;;;;;;7.67;3.67;;;;;;;;5045406;28;45833;-65
2022/11/02 07:19:26;;;;;;;;;5.33;4.00;;;;;;;;5052003;28;45448;-66
2022/11/02 07:21:51;;;;;;;;;5.67;4.33;;;;;;;;5030683;28;45441;-64
2022/11/02 07:24:16;;;;;;;;;3.33;3.33;;;;;;;;5044748;28;45876;-66
2022/11/02 07:26:41;;;;;;;;;5.00;2.67;;;;;;;;5039677;28;45814;-67
2022/11/02 07:29:07;;;;;;;;;7.33;3.00;;;;;;;;5043697;28;45433;-69
2022/11/02 07:31:32;;;;;;;;;7.67;2.67;;;;;;;;5043464;28;45750;-67
2022/11/02 07:33:57;;;;;;;;;4.33;3.33;;;;;;;;5048334;28;45492;-64
2022/11/02 07:36:22;;;;;;;;;6.00;3.00;;;;;;;;5040386;28;46321;-65
2022/11/02 07:38:48;;;;;;;;;5.00;3.67;;;;;;;;5021097;28;45656;-63
2022/11/02 07:41:13;;;;;;;;;4.67;4.33;;;;;;;;5045977;28;45457;-64
2022/11/02 07:43:38;;;;;;;;;7.67;4.00;;;;;;;;5047184;28;45544;-65
2022/11/02 07:46:04;;;;;;;;;4.00;2.33;;;;;;;;5048348;28;45542;-64
2022/11/02 07:48:30;;;;;;;;;7.00;3.33;;;;;;;;5046236;28;45999;-65
2022/11/02 07:50:58;;;;;;;;;4.00;3.00;;;;;;;;5046941;28;45452;-63
2022/11/02 07:53:24;;;;;;;;;7.67;4.00;;;;;;;;5048286;28;45537;-66
2022/11/02 07:55:49;;;;;;;;;3.67;2.00;;;;;;;;5038409;28;45723;-65
2022/11/02 07:58:14;;;;;;;;;3.00;2.33;;;;;;;;5052838;28;45479;-65
2022/11/02 08:00:40;;;;;;;;;4.67;2.00;;;;;;;;5044916;28;45414;-67
2022/11/02 08:03:06;;;;;;;;;5.00;3.33;;;;;;;;5024767;28;45658;-66
2022/11/02 08:05:35;;;;;;;;;9.33;4.00;;;;;;;;5042275;28;46249;-67
2022/11/02 08:08:02;;;;;;;;;9.00;5.33;;;;;;;;5038436;28;45785;-65
2022/11/02 08:10:28;;;;;;;;;17.33;15.67;;;;;;;;5033769;28;45882;-65
2022/11/02 08:12:54;;;;;;;;;6.67;6.33;;;;;;;;5036677;28;45578;-67
2022/11/02 08:15:19;;;;;;;;;7.67;3.67;;;;;;;;5046912;28;46566;-67
2022/11/02 08:17:44;;;;;;;;;10.00;4.00;;;;;;;;5048141;28;45488;-65
2022/11/02 08:20:10;;;;;;;;;10.67;5.33;;;;;;;;5039712;28;45712;-64
2022/11/02 08:22:36;;;;;;;;;12.33;8.33;;;;;;;;5045731;28;45748;-65
2022/11/02 08:25:01;;;;;;;;;9.33;7.67;;;;;;;;5048947;28;45706;-65
2022/11/02 08:27:26;;;;;;;;;5.00;5.00;;;;;;;;5049506;28;45738;-64
2022/11/02 08:29:52;;;;;;;;;11.67;8.00;;;;;;;;5050778;28;45484;-65
2022/11/02 08:32:17;;;;;;;;;14.67;5.00;;;;;;;;5049569;28;45398;-64
2022/11/02 08:34:42;;;;;;;;;13.00;5.00;;;;;;;;5032891;28;46787;-66
2022/11/02 08:37:07;;;;;;;;;2.00;2.00;;;;;;;;5049053;28;45582;-67
2022/11/02 08:39:33;;;;;;;;;12.67;6.67;;;;;;;;5054007;28;45693;-67
2022/11/02 08:41:58;;;;;;;;;17.67;16.67;;;;;;;;5035882;28;45304;-65
2022/11/02 08:44:23;;;;;;;;;17.00;12.33;;;;;;;;5046253;28;45356;-65
2022/11/02 08:46:49;;;;;;;;;7.00;4.67;;;;;;;;5046348;28;45570;-65
2022/11/02 08:49:17;;;;;;;;;8.00;5.00;;;;;;;;5054190;28;45326;-65
2022/11/02 08:51:42;;;;;;;;;12.00;7.67;;;;;;;;5046024;28;45484;-66
2022/11/02 08:54:08;;;;;;;;;7.67;5.00;;;;;;;;5023009;28;47940;-66
2022/11/02 08:56:33;;;;;;;;;12.33;9.67;;;;;;;;5050349;28;45733;-67
2022/11/02 08:58:58;;;;;;;;;20.67;11.00;;;;;;;;5061423;28;45667;-66
2022/11/02 09:01:23;;;;;;;;;8.67;4.33;;;;;;;;5057642;28;45756;-67
2022/11/02 09:03:49;;;;;;;;;17.33;11.00;;;;;;;;5061500;28;45727;-66
2022/11/02 09:06:14;;;;;;;;;6.00;2.67;;;;;;;;5045299;28;45503;-68
2022/11/02 09:08:39;;;;;;;;;4.25;4.25;;;;;;;;5043211;28;45550;-68
2022/11/02 09:11:05;;;;;;;;;4.75;3.25;;;;;;;;5054369;28;45520;-67
2022/11/02 09:13:30;;;;;;;;;4.25;3.00;;;;;;;;5050277;28;46077;-67
2022/11/02 09:15:57;;;;;;;;;10.50;4.00;;;;;;;;5043130;28;45550;-66
2022/11/02 09:18:22;;;;;;;;;7.00;3.25;;;;;;;;5035928;28;45693;-66
2022/11/02 09:20:48;;;;;;;;;6.75;5.25;;;;;;;;5036415;28;45462;-67
2022/11/02 09:23:17;;;;;;;;;5.75;4.00;;;;;;;;5055532;28;45714;-67
2022/11/02 09:25:43;;;;;;;;;9.25;5.00;;;;;;;;5053956;28;45701;-65
2022/11/02 09:28:08;;;;;;;;;2.00;2.00;;;;;;;;5041944;28;45830;-65
2022/11/02 09:30:33;;;;;;;;;2.75;2.25;;;;;;;;5049992;28;45691;-66
2022/11/02 09:33:00;;;;;;;;;7.00;2.50;;;;;;;;5032555;28;47255;-67
2022/11/02 09:35:26;;;;;;;;;4.25;2.00;;;;;;;;5042121;28;45388;-65
2022/11/02 09:37:52;;;;;;;;;5.25;3.00;;;;;;;;5052793;28;45848;-66
2022/11/02 09:40:21;;;;;;;;;1.00;1.00;;;;;;;;5044532;28;45528;-66
2022/11/02 09:43:11;;;;;;;;;4.00;2.00;;;;;;;;5049104;28;46784;-67
2022/11/02 09:45:49;;;;;;;;;6.00;3.00;;;;;;;;5053168;28;45346;-65
2022/11/02 09:48:17;;;;;;;;;4.25;2.00;;;;;;;;5052674;28;45993;-70
2022/11/02 09:51:05;;;;;;;;;1.75;1.75;;;;;;;;5052905;28;45502;-66
2022/11/02 09:53:43;;;;;;;;;7.25;2.00;;;;;;;;5035949;28;46550;-67
2022/11/02 09:56:09;;;;;;;;;2.25;2.25;;;;;;;;5027517;28;45777;-65
2022/11/02 09:58:42;;;;;;;;;4.50;2.00;;;;;;;;5038148;28;45722;-65
2022/11/02 10:01:20;;;;;;;;;7.00;3.50;;;;;;;;5025808;28;46805;-67
2022/11/02 10:04:05;;;;;;;;;2.25;2.25;;;;;;;;5039406;28;45856;-66
2022/11/02 10:06:34;;;;;;;;;3.00;1.50;;;;;;;;5056020;28;45322;-67
2022/11/02 10:09:02;;;;;;;;;4.00;1.75;;;;;;;;5053606;28;45858;-68
2022/11/02 10:11:36;;;;;;;;;1.00;1.00;;;;;;;;5039372;28;45663;-67
2022/11/02 10:14:20;;;;;;;;;1.50;1.25;;;;;;;;5056878;28;46979;-68
2022/11/02 10:16:52;;;;;;;;;3.00;1.50;;;;;;;;5042390;28;45474;-67
2022/11/02 10:19:18;;;;;;;;;1.50;1.50;;;;;;;;5040162;28;45492;-68
2022/11/02 10:21:45;;;;;;;;;7.00;4.50;;;;;;;;5049265;28;46110;-66
2022/11/02 10:24:25;;;;;;;;;4.00;2.50;;;;;;;;5044626;28;47118;-67
2022/11/02 10:26:54;;;;;;;;;3.25;3.00;;;;;;;;5041419;28;45441;-68
2022/11/02 10:29:27;;;;;;;;;2.00;2.00;;;;;;;;5050628;28;45485;-70
2022/11/02 10:31:52;;;;;;;;;2.75;1.75;;;;;;;;5041985;28;45503;-68
2022/11/02 10:34:17;;;;;;;;;2.75;2.00;;;;;;;;5041507;28;47561;-67
2022/11/02 10:36:45;;;;;;;;;2.50;2.50;;;;;;;;5043696;28;45474;-68
2022/11/02 10:39:10;;;;;;;;;4.00;2.00;;;;;;;;5042357;28;47367;-67
2022/11/02 10:41:52;;;;;;;;;3.25;2.00;;;;;;;;5038851;28;45544;-69
2022/11/02 10:44:30;;;;;;;;;2.75;1.50;;;;;;;;5039017;28;46839;-67
2022/11/02 10:46:58;;;;;;;;;1.50;1.50;;;;;;;;5046336;28;45830;-67
2022/11/02 10:49:43;;;;;;;;;3.50;2.00;;;;;;;;5041350;28;45433;-68
2022/11/02 10:52:13;;;;;;;;;3.75;2.25;;;;;;;;5040201;28;45766;-67
2022/11/02 10:54:38;;;;;;;;;4.00;2.00;;;;;;;;5053385;28;46291;-67
2022/11/02 10:57:22;;;;;;;;;2.75;2.00;;;;;;;;5044367;28;45462;-69
2022/11/02 11:00:06;;;;;;;;;1.00;1.00;;;;;;;;5041617;28;45438;-70
2022/11/02 11:02:31;;;;;;;;;4.00;1.50;;;;;;;;5042804;28;45926;-67
2022/11/02 11:05:10;;;;;;;;;3.00;2.00;;;;;;;;5031823;28;46313;-74
2022/11/02 11:07:36;;;;;;;;;6.00;4.00;;;;;;;;5056310;28;45416;-74
2022/11/02 11:10:01;;;;;;;;;5.25;2.50;;;;;;;;5052007;28;45724;-75
2022/11/02 11:12:31;;;;;;;;;4.25;2.00;;;;;;;;5045070;28;45729;-77
2022/11/02 11:14:58;;;;;;;;;4.75;1.00;;;;;;;;5043612;28;45589;-73
2022/11/02 11:17:27;;;;;;;;;4.00;2.00;;;;;;;;5032632;28;45449;-73
2022/11/02 11:19:56;;;;;;;;;4.00;3.00;;;;;;;;5052531;28;45461;-67
2022/11/02 11:22:25;;;;;;;;;5.25;1.25;;;;;;;;5051628;28;45927;-75
2022/11/02 11:24:50;;;;;;;;;4.25;3.00;;;;;;;;5038160;28;46169;-68
2022/11/02 11:27:19;;;;;;;;;5.25;1.50;;;;;;;;5040463;28;45793;-67
2022/11/02 11:29:46;;;;;;;;;3.25;2.00;;;;;;;;5025792;28;45418;-68
2022/11/02 11:32:16;;;;;;;;;2.50;2.00;;;;;;;;5039606;28;45453;-68
2022/11/02 11:34:42;;;;;;;;;4.25;3.00;;;;;;;;5051422;28;46420;-66
2022/11/02 11:37:13;;;;;;;;;3.00;2.00;;;;;;;;5032678;28;45643;-67
2022/11/02 11:39:41;;;;;;;;;5.00;2.75;;;;;;;;5018798;28;45754;-67
2022/11/02 11:42:14;;;;;;;;;3.75;2.25;;;;;;;;5047482;28;45440;-66
2022/11/02 11:44:43;;;;;;;;;2.75;2.00;;;;;;;;5035832;28;45501;-67
2022/11/02 11:47:09;;;;;;;;;3.00;2.00;;;;;;;;5040404;28;45685;-67
2022/11/02 11:49:39;;;;;;;;;4.00;4.00;;;;;;;;5056525;28;45679;-68
2022/11/02 11:52:04;;;;;;;;;2.00;2.00;;;;;;;;5059033;28;45511;-67
2022/11/02 11:54:30;;;;;;;;;4.25;1.50;;;;;;;;5048998;28;45704;-65
2022/11/02 11:56:56;;;;;;;;;7.25;1.50;;;;;;;;5045825;28;45697;-66
2022/11/02 11:59:21;;;;;;;;;2.75;2.75;;;;;;;;5043449;28;45918;-68
2022/11/02 12:01:47;;;;;;;;;2.67;2.67;;;;;;;;5023166;28;47712;-66
2022/11/02 12:04:12;;;;;;;;;4.00;2.00;;;;;;;;5032157;28;48120;-67
2022/11/02 12:06:50;;;;;;;;;2.50;1.00;;;;;;;;5043241;28;45808;-66
2022/11/02 12:09:27;;;;;;;;;4.67;3.00;;;;;;;;5041295;28;45437;-65
2022/11/02 12:12:00;;;;;;;;;1.67;1.00;;;;;;;;5040696;28;45493;-65
2022/11/02 12:14:41;;;;;;;;;4.33;2.33;;;;;;;;5040847;28;45972;-66
2022/11/02 12:17:25;;;;;;;;;2.00;1.00;;;;;;;;5048203;28;45659;-64
2022/11/02 12:20:01;;;;;;;;;6.00;2.00;;;;;;;;5044177;28;45938;-66
2022/11/02 12:22:26;;;;;;;;;9.33;3.00;;;;;;;;5044034;28;45757;-66
2022/11/02 12:24:58;;;;;;;;;4.00;2.33;;;;;;;;5166497;22;45740;-68
2022/11/02 12:27:23;;;;;;;;;4.00;2.00;;;;;;;;5049220;27;45747;-70
2022/11/02 12:30:01;;;;;;;;;9.67;2.67;;;;;;;;5050626;28;45906;-67
2022/11/02 12:32:29;;;;;;;;;3.67;1.33;;;;;;;;5050965;27;45847;-68
2022/11/02 12:34:57;;;;;;;;;3.67;2.67;;;;;;;;5066452;28;46152;-65
2022/11/02 12:37:22;;;;;;;;;4.33;2.33;;;;;;;;5072506;27;45711;-67
2022/11/02 12:40:09;;;;;;;;;4.33;2.00;;;;;;;;5064553;27;46071;-65
2022/11/02 12:42:37;;;;;;;;;0.33;0.33;;;;;;;;5022077;28;45859;-66
2022/11/02 13:14:06;;;;;;;;;;;;;;;;;;;;;
2022/11/02 13:26:38;;;;;;;;;;;;;;;;;;;;;
2022/11/02 13:29:45;;;;;;;;;2.33;1.67;;;;;;;;4888379;29;67570;-86
2022/11/02 13:32:30;;;;;;;;;3.00;2.00;;;;;;;;4893770;29;46136;-87
2022/11/02 13:35:38;;;;;;;;;;;;;;;;;;;;;
2022/11/02 13:44:34;;;;;;;;;5.00;3.33;;;;;;;;4931544;28;45477;-87
2022/11/02 13:47:44;;;;;;;;;2.50;0.00;;;;;;;;4962417;28;45869;-85
2022/11/02 13:54:08;;;;;;;;;;;;;;;;;;;;;
2022/11/02 14:00:14;;;;;;;;;;;;;;;;;;;;;
2022/11/02 14:06:34;;;;;;;;;;;;;;;;;;;;;
2022/11/02 14:09:49;;;;;;;;;;;;;;;;;;;;;
2022/11/02 14:13:18;;;;;;;;;;;;;;;;;;;;;
2022/11/02 14:19:30;;;;;;;;;5.33;2.00;;;;;;;;5003095;28;45815;-90
2022/11/02 14:25:24;;;;;;;;;2.67;0.33;;;;;;;;5021032;28;45057;-89
2022/11/02 14:28:21;;;;;;;;;1.00;1.00;;;;;;;;5008168;28;44905;-88
2022/11/02 14:37:14;;;;;;;;;2.67;2.00;;;;;;;;4987060;28;45965;-87
2022/11/02 14:49:53;;;;;;;;;2.00;2.00;;;;;;;;4914761;28;45546;-89
2022/11/02 14:56:29;;;;;;;;;;;;;;;;;;;;;
2022/11/02 15:05:43;;;;;;;;;0.33;0.00;;;;;;;;4812845;29;45582;-86
2022/11/02 15:12:09;;;;;;;;;2.67;2.67;;;;;;;;4816680;29;46524;-85
2022/11/02 15:15:02;;;;;;;;;2.00;1.00;;;;;;;;4893167;29;46054;-89
2022/11/02 15:40:23;;;;;;;;;;;;;;;;;;;;;
2022/11/02 16:11:34;;;;;;;;;;;;;;;;;;;;;
2022/11/02 16:33:38;;;;;;;;;1.00;1.00;;;;;;;;4936956;28;45594;-90
2022/11/02 16:36:51;;;;;;;;;4.33;3.00;;;;;;;;4931488;28;45347;-86
2022/11/02 16:40:07;;;;;;;;;;;;;;;;;;;;;
2022/11/02 16:51:54;;;;;;;;;3.00;2.00;;;;;;;;5027175;22;45485;-67
2022/11/02 16:54:32;;;;;;;;;2.00;2.00;;;;;;;;5029777;28;47576;-65
2022/11/02 16:57:02;;;;;;;;;3.00;2.00;;;;;;;;5042179;28;45913;-66
2022/11/02 16:59:28;;;;;;;;;4.00;2.67;;;;;;;;5025687;28;45680;-69
2022/11/02 17:01:57;;;;;;;;;7.00;2.67;;;;;;;;5048940;28;45542;-68
2022/11/02 17:04:23;;;;;;;;;2.00;0.00;;;;;;;;5040947;28;45861;-71
2022/11/02 17:06:50;;;;;;;;;3.00;2.00;;;;;;;;5033678;28;45951;-75
2022/11/02 17:09:26;;;;;;;;;2.33;1.67;;;;;;;;5056603;28;45570;-73
2022/11/02 17:11:53;;;;;;;;;2.33;2.00;;;;;;;;5045726;28;46424;-70
2022/11/02 17:14:19;;;;;;;;;6.00;2.00;;;;;;;;5068487;28;46517;-73
2022/11/02 17:16:56;;;;;;;;;4.00;2.00;;;;;;;;5062864;27;45581;-69
2022/11/02 17:19:51;;;;;;;;;2.00;2.00;;;;;;;;5057617;28;45996;-69
2022/11/02 17:22:19;;;;;;;;;3.00;3.00;;;;;;;;5043058;28;45769;-68
2022/11/02 17:24:45;;;;;;;;;6.33;2.33;;;;;;;;5067714;28;46711;-67
2022/11/02 17:27:24;;;;;;;;;2.33;2.33;;;;;;;;5064486;27;45570;-68
2022/11/02 17:29:50;;;;;;;;;4.00;4.00;;;;;;;;5065665;28;45444;-70
2022/11/02 17:32:15;;;;;;;;;3.33;2.00;;;;;;;;5070821;28;45517;-72
2022/11/02 17:34:47;;;;;;;;;3.67;1.33;;;;;;;;5053183;28;46217;-72
2022/11/02 17:39:44;;;;;;;;;4.00;2.00;;;;;;;;4999720;28;45868;-71
2022/11/02 17:44:53;;;;;;;;;0.00;0.00;;;;;;;;5010270;28;45748;-71
2022/11/02 17:47:18;;;;;;;;;5.00;2.00;;;;;;;;5017873;28;45861;-70
2022/11/02 17:49:43;;;;;;;;;4.00;2.00;;;;;;;;5003390;28;45862;-71
2022/11/02 17:52:13;;;;;;;;;8.33;3.00;;;;;;;;5002290;28;45801;-72
2022/11/02 17:54:38;;;;;;;;;2.00;2.00;;;;;;;;5009939;28;45365;-72
2022/11/02 17:57:08;;;;;;;;;5.00;4.00;;;;;;;;5007249;28;45363;-79
2022/11/02 17:59:33;;;;;;;;;5.00;2.33;;;;;;;;4990399;28;45530;-71
2022/11/02 18:01:58;;;;;;;;;6.00;4.00;;;;;;;;4986289;28;45813;-70
2022/11/02 18:04:24;;;;;;;;;6.67;4.67;;;;;;;;5003924;28;45849;-76
2022/11/02 18:06:49;;;;;;;;;3.00;1.00;;;;;;;;5006976;28;45370;-76
2022/11/02 18:09:17;;;;;;;;;4.67;3.00;;;;;;;;4992849;28;45462;-72
2022/11/02 18:11:43;;;;;;;;;6.67;5.00;;;;;;;;4998142;28;46118;-70
2022/11/02 18:14:11;;;;;;;;;7.00;5.67;;;;;;;;5010762;28;45653;-71
2022/11/02 18:16:37;;;;;;;;;4.67;4.67;;;;;;;;5009946;28;45584;-68
2022/11/02 18:19:02;;;;;;;;;8.00;3.00;;;;;;;;5002834;28;45697;-68